Latest Weather Observations for Nuriootpa

IDS60801

Issued at 4:31 pm CST Thursday 27 April 2017 (issued every 30 minutes, with the page automatically refreshed every 10 minutes)

About weather observations | Map of weather stations | Latest weather observations for SA | Other Formats
Station Details ID: 023373 Name: NURIOOTPA PIRSA Lat: -34.48 Lon: 139.01 Height: 275.0 m
Data from the previous 72 hours. | See also: Recent months at Nuriootpa
Date/Time
CST
Temp
°C
App
Temp
°C
Dew
Point
°C
Rel
Hum
%
Delta-T
°C
Wind Press
QNH
hPa
Press
MSL
hPa
Rain since
9am
mm
Dir  Spd
km/h
Gust
km/h
Spd
kts
Gust
kts
27/04:30pm 13.7 10.4 6.2 60 3.6 SW 13 20 7 11 1026.8 1026.5 0.0
27/04:00pm 13.9 9.7 5.5 57 4.0 SW 17 22 9 12 1026.6 1026.2 0.0
27/03:30pm 13.7 10.4 6.5 62 3.5 SW 13 20 7 11 1026.6 1026.2 0.0
27/03:00pm 13.3 10.0 6.5 63 3.3 WSW 13 17 7 9 1026.7 1026.3 0.0
27/02:30pm 13.4 10.3 7.1 65 3.1 WSW 13 19 7 10 1026.8 1026.5 0.0
27/02:00pm 13.3 9.4 7.2 66 3.0 WSW 17 22 9 12 1026.6 1026.2 0.0
27/01:30pm 13.3 9.2 6.2 62 3.4 WSW 17 24 9 13 1026.5 1026.1 0.0
27/01:00pm 13.0 9.0 6.8 66 3.0 SW 17 28 9 15 1026.9 1026.6 0.0
27/12:30pm 13.5 9.4 6.2 61 3.5 WSW 17 24 9 13 1027.2 1026.9 0.0
27/12:00pm 13.9 9.8 6.0 59 3.8 WSW 17 26 9 14 1027.6 1027.3 0.0
27/11:30am 13.4 9.2 5.6 59 3.7 SW 17 24 9 13 1028.1 1027.8 0.0
27/11:00am 13.0 10.6 6.8 66 3.0 SW 9 17 5 9 1028.2 1027.9 0.0
27/10:30am 12.7 8.8 6.9 68 2.8 WSW 17 24 9 13 1028.6 1028.3 0.0
27/10:00am 12.2 9.5 7.3 72 2.4 WNW 11 17 6 9 1028.7 1028.4 0.0
27/09:30am 11.6 9.3 7.3 75 2.1 SW 9 13 5 7 1028.8 1028.5 0.0
27/09:00am 11.1 9.0 6.7 74 2.1 SW 7 11 4 6 1028.5 1028.2 0.2
27/08:30am 10.4 8.0 6.8 78 1.7 SW 9 15 5 8 1028.3 1028.0 0.2
27/08:00am 10.0 7.6 6.8 80 1.5 W 9 13 5 7 1028.0 1027.7 0.2
27/07:30am 9.1 6.6 6.5 84 1.2 W 9 13 5 7 1027.8 1027.5 0.2
27/07:00am 8.2 6.1 6.7 90 0.7 SSW 7 9 4 5 1027.4 1027.1 0.2
27/06:30am 8.6 7.0 6.5 87 1.0 W 4 7 2 4 1027.0 1026.7 0.2
27/06:00am 8.7 6.5 6.3 85 1.1 W 7 9 4 5 1026.9 1026.6 0.2
27/05:30am 8.8 7.2 6.4 85 1.1 W 4 7 2 4 1026.6 1026.2 0.2
27/05:00am 8.9 6.3 6.3 84 1.2 WNW 9 13 5 7 1026.3 1025.9 0.2
27/04:30am 9.3 6.7 6.3 81 1.4 W 9 15 5 8 1026.2 1025.8 0.2
27/04:00am 9.7 6.2 5.6 75 1.9 SW 13 19 7 10 1026.0 1025.6 0.2
27/03:30am 8.8 6.8 6.2 84 1.2 SW 6 11 3 6 1025.9 1025.5 0.2
27/03:00am 7.5 6.2 6.2 91 0.6 WSW 2 6 1 3 1025.9 1025.5 0.2
27/02:30am 7.7 5.2 5.0 83 1.2 WNW 7 9 4 5 1025.9 1025.5 0.2
27/02:00am 8.7 5.8 4.9 77 1.7 S 9 15 5 8 1026.1 1025.7 0.2
27/01:30am 8.2 5.4 5.3 82 1.3 S 9 13 5 7 1026.0 1025.6 0.2
27/01:00am 8.1 5.7 5.2 82 1.3 SSW 7 9 4 5 1025.9 1025.5 0.2
27/12:30am 9.0 6.2 5.0 76 1.8 SW 9 13 5 7 1025.9 1025.5 0.2
27/12:00am 8.2 5.8 5.1 81 1.4 SW 7 11 4 6 1025.8 1025.4 0.2
 
Date/Time
CST
Temp
°C
App
Temp
°C
Dew
Point
°C
Rel
Hum
%
Delta-T
°C
Wind Press
QNH
hPa
Press
MSL
hPa
Rain since
9am
mm
Dir  Spd
km/h
Gust
km/h
Spd
kts
Gust
kts
26/11:30pm 7.3 5.5 5.3 87 0.9 SW 4 6 2 3 1025.8 1025.4 0.2
26/11:00pm 6.9 4.4 4.6 85 1.0 WSW 7 9 4 5 1025.8 1025.4 0.2
26/10:30pm 7.6 5.1 4.9 83 1.2 SSW 7 9 4 5 1025.8 1025.4 0.2
26/10:00pm 8.1 5.6 5.0 81 1.4 SW 7 9 4 5 1025.8 1025.4 0.2
26/09:30pm 7.0 4.5 4.7 85 1.0 SSW 7 9 4 5 1025.7 1025.3 0.2
26/09:00pm 7.6 4.7 4.7 82 1.3 SSW 9 11 5 6 1025.2 1024.9 0.2
26/08:30pm 8.8 5.8 4.3 73 2.0 SW 9 13 5 7 1025.0 1024.7 0.2
26/08:00pm 9.8 6.5 4.5 69 2.4 SSW 11 19 6 10 1024.9 1024.6 0.2
26/07:30pm 9.2 6.2 4.3 71 2.2 SSW 9 13 5 7 1024.7 1024.4 0.2
26/07:00pm 9.4 6.4 4.2 70 2.3 SW 9 11 5 6 1024.3 1024.0 0.2
26/06:30pm 9.9 6.1 3.8 66 2.7 SW 13 17 7 9 1024.2 1023.9 0.2
26/06:00pm 10.4 6.9 3.4 62 3.1 SW 11 19 6 10 1023.5 1023.1 0.2
26/05:30pm 10.3 5.9 4.6 68 2.6 SSW 17 24 9 13 1023.4 1023.0 0.2
26/05:00pm 11.0 6.6 4.9 66 2.8 SSW 17 26 9 14 1023.1 1022.7 0.2
26/04:30pm 11.6 6.8 4.4 61 3.3 SSW 19 26 10 14 1023.0 1022.6 0.2
26/04:00pm 12.0 6.9 3.3 55 3.9 SSW 19 28 10 15 1022.5 1022.1 0.2
26/03:30pm 11.5 7.1 5.0 64 3.0 SSW 17 28 9 15 1022.4 1022.0 0.2
26/03:00pm 12.3 7.2 3.9 56 3.8 WSW 20 28 11 15 1022.3 1021.9 0.2
26/02:30pm 12.0 8.3 6.1 67 2.8 SSW 15 24 8 13 1022.1 1021.7 0.2
26/02:00pm 12.8 7.9 4.9 58 3.7 SW 20 37 11 20 1021.9 1021.5 0.0
26/01:30pm 12.2 7.3 4.1 57 3.7 S 19 28 10 15 1021.6 1021.3 0.0
26/01:18pm 11.5 4.9 4.0 60 3.4 SSW 28 46 15 25 1021.7 1021.4 0.0
26/01:00pm 11.5 6.2 4.8 63 3.1 SSW 22 32 12 17 1021.4 1021.1 0.0
26/12:30pm 13.5 7.8 3.1 49 4.7 SSW 22 33 12 18 1021.2 1020.9 0.0
26/12:00pm 13.0 7.4 3.5 52 4.3 SW 22 33 12 18 1021.3 1021.0 0.0
26/11:30am 12.3 6.6 3.1 53 4.1 SSW 22 33 12 18 1021.5 1021.2 0.0
26/11:00am 12.8 6.9 3.8 54 4.1 SSW 24 35 13 19 1021.4 1021.1 0.0
26/10:30am 12.0 5.7 3.6 56 3.8 SW 26 39 14 21 1021.1 1020.8 0.0
26/10:00am 11.6 5.5 3.0 55 3.8 SW 24 37 13 20 1020.9 1020.6 0.0
26/09:30am 11.3 5.7 3.2 57 3.6 SSW 22 33 12 18 1020.8 1020.5 0.0
26/09:00am 10.5 4.9 3.2 60 3.2 SSW 22 32 12 17 1020.5 1020.1 8.6
26/08:30am 9.8 4.2 3.2 63 2.9 SSW 22 30 12 16 1019.9 1019.5 8.6
26/08:00am 9.0 4.3 3.0 66 2.6 SSW 17 22 9 12 1019.4 1019.0 8.6
26/07:30am 8.2 3.8 2.8 69 2.3 SW 15 22 8 12 1018.7 1018.3 8.6
26/07:00am 7.7 2.5 2.2 68 2.3 SSW 19 24 10 13 1018.2 1017.8 8.6
26/06:30am 7.5 3.5 2.8 72 2.0 SW 13 22 7 12 1017.7 1017.4 8.6
26/06:00am 7.6 3.9 4.2 79 1.5 WSW 13 20 7 11 1017.1 1016.7 8.6
26/05:30am 8.3 2.9 4.7 78 1.6 SW 22 32 12 17 1016.6 1016.2 8.4
26/05:00am 8.4 2.8 5.3 81 1.4 SW 24 37 13 20 1016.0 1015.6 8.4
26/04:30am 8.6 3.7 6.7 88 0.9 SW 22 33 12 18 1015.5 1015.1 8.4
26/04:00am 8.8 3.4 7.8 93 0.5 SW 26 43 14 23 1015.2 1014.8 8.4
26/03:43am 9.0 3.1 7.3 89 0.8 WSW 28 46 15 25 1014.8 1014.4 8.2
26/03:30am 9.2 2.2 6.9 85 1.1 WSW 33 50 18 27 1014.7 1014.3 8.0
26/03:00am 10.4 4.1 5.5 71 2.3 WSW 28 46 15 25 1014.3 1013.8 7.8
26/02:30am 10.8 5.4 6.2 73 2.2 WSW 24 35 13 19 1013.9 1013.5 7.8
26/02:00am 10.9 5.3 5.3 68 2.6 WSW 24 41 13 22 1013.7 1013.3 7.8
26/01:36am 11.4 5.3 6.8 73 2.2 WSW 28 46 15 25 1013.5 1013.1 7.8
26/01:30am 11.3 5.9 7.9 79 1.7 WSW 26 37 14 20 1013.5 1013.1 7.8
26/01:00am 11.2 6.6 9.6 90 0.8 SW 24 37 13 20 1013.2 1012.8 7.8
26/12:30am 11.4 6.4 10.8 96 0.3 SW 28 41 15 22 1012.9 1012.5 7.8
26/12:20am 11.5 6.5 10.9 96 0.3 SW 28 46 15 25 1012.8 1012.4 7.2
26/12:02am 11.8 5.5 11.2 96 0.3 W 35 65 19 35 1012.5 1012.1 7.0
26/12:00am 11.9 5.6 11.1 95 0.4 W 35 65 19 35 1012.3 1011.9 7.0
 
Date/Time
CST
Temp
°C
App
Temp
°C
Dew
Point
°C
Rel
Hum
%
Delta-T
°C
Wind Press
QNH
hPa
Press
MSL
hPa
Rain since
9am
mm
Dir  Spd
km/h
Gust
km/h
Spd
kts
Gust
kts
25/11:57pm 12.0 6.7 11.4 96 0.3 W 30 65 16 35 1012.3 1011.9 6.8
25/11:30pm 12.1 8.0 11.4 95 0.4 W 24 35 13 19 1012.5 1012.1 5.6
25/11:00pm 11.9 7.7 11.0 94 0.5 W 24 35 13 19 1012.6 1012.2 2.8
25/10:30pm 12.2 8.6 9.9 86 1.2 W 19 28 10 15 1012.9 1012.5 1.8
25/10:00pm 11.8 8.5 9.5 86 1.2 W 17 24 9 13 1012.9 1012.5 1.8
25/09:30pm 12.2 7.7 8.6 78 1.8 W 22 32 12 17 1012.8 1012.4 1.8
25/09:00pm 12.2 7.7 8.4 77 1.9 W 22 32 12 17 1012.7 1012.3 1.8
25/08:30pm 12.7 8.2 8.5 75 2.1 W 22 32 12 17 1013.1 1012.7 1.8
25/08:00pm 13.0 9.1 10.9 87 1.1 W 22 35 12 19 1013.3 1012.9 1.6
25/07:30pm 12.7 10.9 12.0 95 0.4 W 13 20 7 11 1013.4 1013.0 1.6
25/07:00pm 12.3 9.9 11.4 94 0.5 W 15 19 8 10 1013.4 1013.0 1.6
25/06:30pm 12.3 9.5 11.4 94 0.5 WSW 17 28 9 15 1013.1 1012.7 1.6
25/06:17pm 12.2 7.3 11.3 94 0.5 WSW 28 52 15 28 1013.1 1012.7 1.6
25/06:00pm 13.7 9.8 12.2 91 0.8 WSW 24 39 13 21 1012.8 1012.4 0.8
25/05:30pm 14.1 9.6 12.7 91 0.8 WSW 28 39 15 21 1012.5 1012.1 0.8
25/05:00pm 16.7 11.8 8.4 58 4.3 W 24 35 13 19 1012.1 1011.7 0.6
25/04:30pm 17.1 11.6 7.5 53 4.9 W 26 35 14 19 1012.1 1011.7 0.6
25/04:00pm 18.3 13.0 6.6 46 5.9 W 24 39 13 21 1011.9 1011.5 0.6
25/03:30pm 18.4 12.2 6.0 44 6.2 W 28 39 15 21 1011.9 1011.5 0.6
25/03:00pm 17.9 13.3 8.3 53 5.0 W 22 43 12 23 1012.2 1011.8 0.6
25/02:30pm 18.3 13.0 8.6 53 5.1 WSW 26 37 14 20 1012.1 1011.7 0.6
25/02:00pm 18.6 14.4 9.9 57 4.7 WSW 22 33 12 18 1012.1 1011.7 0.6
25/01:30pm 16.9 11.9 10.8 67 3.3 WSW 28 41 15 22 1012.7 1012.3 0.6
25/01:00pm 18.1 13.3 11.8 66 3.5 WSW 28 39 15 21 1013.0 1012.6 0.6
25/12:30pm 17.4 13.4 11.8 69 3.1 WSW 24 37 13 20 1013.1 1012.7 0.6
25/12:00pm 17.5 13.3 12.5 72 2.8 WSW 26 35 14 19 1013.3 1012.9 0.6
25/11:30am 17.2 13.5 12.8 75 2.5 WSW 24 37 13 20 1013.6 1013.2 0.6
25/11:00am 15.7 13.0 13.6 87 1.2 WSW 20 33 11 18 1013.9 1013.5 0.6
25/10:30am 15.6 13.6 14.0 90 0.9 W 17 24 9 13 1014.3 1013.8 0.6
25/10:00am 15.1 13.0 13.5 90 0.9 W 17 22 9 12 1014.5 1014.1 0.6
25/09:30am 15.1 12.5 13.3 89 1.0 WSW 19 28 10 15 1014.5 1014.1 0.6
25/09:00am 15.3 12.7 13.7 90 0.9 W 20 37 11 20 1014.4 1014.0 2.2
25/08:30am 15.1 11.8 13.9 92 0.7 W 24 35 13 19 1014.5 1014.1 2.2
25/08:00am 14.4 10.6 13.5 94 0.5 WNW 26 35 14 19 1013.9 1013.5 2.2
25/07:30am 13.9 10.4 13.4 97 0.3 W 24 37 13 20 1013.6 1013.2 2.2
25/07:00am 13.7 10.1 13.2 97 0.3 W 24 35 13 19 1013.2 1012.8 2.2
25/06:30am 13.7 10.1 13.2 97 0.3 W 24 35 13 19 1013.0 1012.6 2.2
25/06:00am 13.7 10.5 13.2 97 0.3 W 22 32 12 17 1012.7 1012.3 2.2
25/05:30am 13.7 10.5 13.0 96 0.4 W 22 35 12 19 1012.5 1012.1 2.2
25/05:00am 13.6 10.3 12.9 95 0.4 WNW 22 35 12 19 1012.4 1012.0 2.2
25/04:30am 13.6 10.8 12.7 94 0.5 W 19 26 10 14 1012.4 1012.0 2.2
25/04:00am 13.5 10.6 12.4 93 0.6 W 19 30 10 16 1012.6 1012.2 2.2
25/03:30am 13.5 10.1 12.6 94 0.5 W 22 32 12 17 1012.5 1012.1 2.2
25/03:00am 13.8 11.0 13.1 96 0.4 W 20 30 11 16 1012.7 1012.3 2.2
25/02:30am 14.1 11.0 13.4 96 0.4 W 22 35 12 19 1012.7 1012.3 2.2
25/02:00am 14.3 11.8 13.4 94 0.5 W 19 28 10 15 1012.7 1012.3 2.2
25/01:30am 14.6 11.2 13.7 94 0.5 W 24 39 13 21 1012.6 1012.2 2.2
25/01:00am 14.9 11.7 14.2 96 0.4 W 24 35 13 19 1012.5 1012.1 2.2
25/12:30am 15.2 12.4 14.3 94 0.5 W 22 35 12 19 1012.7 1012.3 2.2
25/12:00am 15.3 12.6 14.6 96 0.4 WNW 22 37 12 20 1013.0 1012.6 2.2
 
Date/Time
CST
Temp
°C
App
Temp
°C
Dew
Point
°C
Rel
Hum
%
Delta-T
°C
Wind Press
QNH
hPa
Press
MSL
hPa
Rain since
9am
mm
Dir  Spd
km/h
Gust
km/h
Spd
kts
Gust
kts
24/11:30pm 15.4 12.7 14.7 96 0.4 WNW 22 33 12 18 1013.2 1012.8 2.2
24/11:00pm 15.5 13.4 14.6 94 0.5 WNW 19 30 10 16 1013.2 1012.8 2.2
24/10:30pm 15.4 13.7 14.7 96 0.4 NW 17 20 9 11 1013.7 1013.3 2.2
24/10:00pm 15.5 15.0 14.8 96 0.4 NW 11 17 6 9 1013.9 1013.5 2.2
24/09:30pm 15.4 16.3 15.1 98 0.2 NW 4 7 2 4 1014.1 1013.7 2.2
24/09:00pm 15.5 17.1 15.0 97 0.3 CALM 0 4 0 2 1014.4 1014.0 1.8
24/08:30pm 15.3 15.5 14.6 96 0.4 W 7 9 4 5 1014.3 1013.8 1.8
24/08:00pm 15.3 12.5 14.4 94 0.5 W 22 32 12 17 1014.5 1014.1 1.6
24/07:30pm 15.9 14.7 15.0 94 0.5 W 15 19 8 10 1014.6 1014.2 1.2
24/07:00pm 15.8 15.0 15.1 96 0.4 W 13 20 7 11 1014.7 1014.3 1.2
24/06:30pm 15.9 15.1 15.2 96 0.4 WSW 13 20 7 11 1014.3 1013.8 1.2
24/06:00pm 16.1 15.7 15.2 94 0.5 W 11 17 6 9 1014.0 1013.6 1.2
24/05:30pm 16.1 15.3 15.2 94 0.5 WSW 13 19 7 10 1013.9 1013.5 1.2
24/05:00pm 16.6 16.0 15.6 94 0.6 W 13 19 7 10 1013.9 1013.5 1.2

Other Formats:

Comma delimited format used in spreadsheet applications
http://www.bom.gov.au/fwo/IDS60801/IDS60801.94681.axf

JavaScript Object Notation format (JSON) in row-major order
http://www.bom.gov.au/fwo/IDS60801/IDS60801.94681.json